Terminal Aerodrome Forecast
Issued by NWS Charleston, WV

Current Version | Previous Version | Graphics & Text | Print | Product List | Glossary On
Versions: 1 2 3 4 5 6 7 8 9 10 11 12 13 14 15 16 17 18 19 20 21 22 23 24 25 26 27 28
113
FTUS41 KRLX 241740 AAB
TAFPKB
TAF AMD
KPKB 241740Z 2418/2518 22012G20KT P6SM FEW050
     FM250800 18009G19KT 6SM -SHRA BR OVC025
     FM251000 21009KT 2SM -SHRA BR OVC025
     FM251300 26009KT 4SM SHRA BR OVC025
     FM251500 25009G15KT P6SM BKN070
     FM251700 26011G20KT P6SM BKN040=

USA.gov is the U.S. government's official web portal to all federal, state and local government web resources and services.